Bookmark and Share
Track history (hours):
 

Joy

Last reported at 2014-Apr-24 10:33 UTC. Time now 2014-Apr-24 11:29 UTC.
Position N 59°27' E 024°40'.

Length 105 m; draft 5.8 m.

Type: Cargo ship. MMSI: 305444000.

NotesDate/timePositionNaut miles runAvg speedWind from/ knotsBaromVisibWave heightAir tempDewpointWater temp
2014-Apr-24 10:33N 59°27' E 024°40'0 0.0
2014-Apr-24 09:33N 59°27' E 024°40'0 0.0
2014-Apr-24 08:33N 59°27' E 024°40'0 0.0
2014-Apr-24 07:33N 59°27' E 024°40'0 0.0
2014-Apr-24 06:30N 59°27' E 024°40'0 0.0
2014-Apr-24 05:33N 59°27' E 024°40'0 0.0
2014-Apr-24 04:24N 59°27' E 024°40'0 0.0
2014-Apr-24 03:33N 59°27' E 024°40'0 0.0
2014-Apr-24 02:21N 59°27' E 024°40'0 0.0
2014-Apr-24 01:33N 59°27' E 024°40'0 0.0
2014-Apr-24 00:27N 59°27' E 024°40'0 0.0
2014-Apr-23 23:33N 59°27' E 024°40'0 0.0
2014-Apr-23 22:30N 59°27' E 024°40'0 0.0
2014-Apr-23 21:33N 59°27' E 024°40'0 0.3
2014-Apr-23 20:34N 59°27' E 024°40'8 7.8
2014-Apr-23 19:34N 59°29' E 024°25'1511.3
2014-Apr-23 18:11N 59°30' E 023°55'711.3
2014-Apr-23 17:34N 59°30' E 023°41'31210.4
2014-Apr-22 11:28N 55°58' E 016°32'4611.0
2014-Apr-22 07:17N 55°36' E 015°20'810.8
2014-Apr-22 06:33N 55°32' E 015°08'1110.8
2014-Apr-22 05:34N 55°27' E 014°51'1110.8
2014-Apr-22 04:34N 55°20' E 014°36'1110.9
2014-Apr-22 03:33N 55°12' E 014°22'1111.3
2014-Apr-22 02:33N 55°03' E 014°11'1111.1
2014-Apr-22 01:33N 54°58' E 013°53'1111.2
2014-Apr-22 00:34N 54°55' E 013°35'1110.6
2014-Apr-21 23:34N 54°52' E 013°17'1110.7
2014-Apr-21 22:33N 54°48' E 012°60'1110.5
2014-Apr-21 21:33N 54°44' E 012°43'1110.4
2014-Apr-21 20:32N 54°39' E 012°27'10 9.8
2014-Apr-21 19:34N 54°32' E 012°16'9 8.7
2014-Apr-21 18:33N 54°25' E 012°07'1010.0
2014-Apr-21 17:34N 54°25' E 011°49'10 9.7
2014-Apr-21 16:33N 54°28' E 011°34'10 9.7
2014-Apr-21 15:33N 54°33' E 011°19'10 9.4
2014-Apr-21 14:31N 54°35' E 011°03'53 7.6
2014-Apr-21 07:28N 54°16' E 009°37'1 1.5
2014-Apr-21 06:32N 54°14' E 009°37'8 8.3
2014-Apr-21 05:34N 54°10' E 009°25'7 7.1
2014-Apr-21 04:34N 54°04' E 009°19'7 7.4
2014-Apr-21 03:34N 53°57' E 009°14'5 4.7
2014-Apr-21 02:34N 53°53' E 009°09'6 6.2
2014-Apr-21 01:34N 53°51' E 008°59'1211.9
2014-Apr-21 00:33N 53°55' E 008°40'1312.7
2014-Apr-20 23:33N 53°59' E 008°20'1212.0
2014-Apr-20 22:33N 53°58' E 007°59'1111.4
2014-Apr-20 21:33N 53°56' E 007°41'1010.4
2014-Apr-20 20:33N 53°53' E 007°23'10 9.9
2014-Apr-20 19:33N 53°51' E 007°07'10 9.5
2014-Apr-20 18:29N 53°49' E 006°50'9 9.3
2014-Apr-20 17:32N 53°46' E 006°36'9 8.9
2014-Apr-20 16:33N 53°43' E 006°23'8 8.3
2014-Apr-20 15:33N 53°37' E 006°33'1212.2
2014-Apr-20 14:34N 53°30' E 006°49'3 3.1
2014-Apr-20 13:33N 53°27' E 006°51'0 0.0
2014-Apr-20 12:33N 53°27' E 006°51'0 0.0
2014-Apr-20 11:33N 53°27' E 006°51'0 0.0
2014-Apr-20 10:33N 53°27' E 006°51'0 0.0
2014-Apr-20 09:33N 53°27' E 006°51'0 0.0
2014-Apr-20 08:33N 53°27' E 006°51'0 0.0
2014-Apr-20 07:33N 53°27' E 006°51'0 0.0
2014-Apr-20 06:32N 53°27' E 006°51'0 0.0
2014-Apr-20 05:33N 53°27' E 006°51'0 0.0
2014-Apr-20 04:33N 53°27' E 006°51'0 0.0
2014-Apr-20 03:32N 53°27' E 006°51'0 0.0
2014-Apr-20 02:32N 53°27' E 006°51'0 0.0
2014-Apr-20 01:32N 53°27' E 006°51'0 0.0
2014-Apr-20 00:32N 53°27' E 006°51'0 0.0
2014-Apr-19 23:32N 53°27' E 006°51'0 0.0
2014-Apr-19 22:32N 53°27' E 006°51'0 0.0
2014-Apr-19 21:32N 53°27' E 006°51'0 0.0
2014-Apr-19 20:32N 53°27' E 006°51'0 0.0
2014-Apr-19 19:32N 53°27' E 006°51'0 0.0
2014-Apr-19 18:32N 53°27' E 006°51'0 0.0
2014-Apr-19 17:32N 53°27' E 006°51'0 0.0
2014-Apr-19 16:32N 53°27' E 006°51'2 1.7
2014-Apr-19 15:33N 53°28' E 006°50'9 9.2
2014-Apr-19 14:33N 53°34' E 006°39'9 8.1
2014-Apr-19 13:28N 53°37' E 006°24'4 3.5
2014-Apr-19 12:16N 53°36' E 006°17'0 0.0
2014-Apr-19 07:28N 53°36' E 006°17'0 0.0
2014-Apr-19 06:19N 53°36' E 006°17'0 0.0
2014-Apr-19 05:19N 53°36' E 006°17'0 0.0
2014-Apr-19 04:25N 53°36' E 006°17'0 0.0
2014-Apr-19 03:18N 53°36' E 006°17'0 0.0
2014-Apr-19 02:08N 53°36' E 006°17'0 0.0
2014-Apr-19 01:19N 53°36' E 006°17'0 0.1
2014-Apr-19 00:31N 53°36' E 006°17'0 0.1
2014-Apr-18 23:19N 53°36' E 006°17'0 0.0
2014-Apr-18 18:21N 53°36' E 006°17'0 0.1
2014-Apr-18 17:06N 53°36' E 006°17'0 0.0
2014-Apr-18 16:30N 53°36' E 006°17'0 0.0
2014-Apr-18 15:27N 53°36' E 006°17'0 0.0
2014-Apr-18 14:22N 53°36' E 006°17'0 0.0
2014-Apr-18 05:24N 53°36' E 006°17'0 0.0
2014-Apr-18 04:21N 53°36' E 006°17'0 0.0
2014-Apr-18 03:33N 53°36' E 006°17'0 0.0
2014-Apr-18 02:33N 53°36' E 006°17'0 0.0
2014-Apr-18 01:06N 53°36' E 006°17'0 0.0
2014-Apr-18 00:30N 53°36' E 006°17'0 0.0
2014-Apr-17 23:06N 53°36' E 006°17'0 0.0
2014-Apr-17 22:18N 53°36' E 006°17'0 0.0
2014-Apr-17 21:24N 53°36' E 006°17'0 0.0
2014-Apr-17 20:33N 53°36' E 006°17'0 0.0
2014-Apr-17 19:33N 53°36' E 006°17'0 0.0
2014-Apr-17 18:26N 53°36' E 006°17'0 0.0
2014-Apr-17 17:32N 53°36' E 006°17'0 0.0
2014-Apr-17 16:23N 53°36' E 006°17'5 6.5
2014-Apr-17 15:33N 53°39' E 006°10'10 9.8
2014-Apr-17 14:33N 53°38' E 005°53'1111.0
2014-Apr-17 13:33N 53°35' E 005°36'1110.8
2014-Apr-17 12:33N 53°31' E 005°18'1111.2
2014-Apr-17 11:33N 53°28' E 005°00'1111.4
2014-Apr-17 10:33N 53°23' E 004°43'1211.7
2014-Apr-17 09:32N 53°13' E 004°34'1211.8
2014-Apr-17 08:33N 53°03' E 004°24'1212.2
2014-Apr-17 07:33N 52°52' E 004°15'1212.3
2014-Apr-17 06:33N 52°42' E 004°04'1312.7
2014-Apr-17 05:33N 52°33' E 003°48'1312.9
2014-Apr-17 04:33N 52°24' E 003°33'1313.2
2014-Apr-17 03:33N 52°15' E 003°17'4013.2
2014-Apr-17 00:32N 51°45' E 002°35'1211.9
2014-Apr-16 23:33N 51°35' E 002°23'1110.7
2014-Apr-16 22:33N 51°27' E 002°13'10 9.7
2014-Apr-16 21:33N 51°18' E 002°06'8 8.4
2014-Apr-16 20:34N 51°12' E 001°58'9 8.7
2014-Apr-16 19:33N 51°07' E 001°46'9 8.8
2014-Apr-16 18:31N 51°00' E 001°36'10 9.3
2014-Apr-16 17:29N 50°52' E 001°27'1010.5
2014-Apr-16 16:33N 50°43' E 001°22'2210.6
2014-Apr-16 14:32N 50°29' E 000°57'1111.0
2014-Apr-16 13:32N 50°26' E 000°41'1311.1
2014-Apr-16 12:21N 50°23' E 000°21'911.6
2014-Apr-16 11:33N 50°21' E 000°07'1312.7
2014-Apr-16 10:33N 50°17' W 000°12'1513.9
2014-Apr-16 09:29N 50°12' W 000°34'1714.6
2014-Apr-16 08:20N 50°08' W 000°60'204 7.1
2014-Apr-15 03:30N 51°23' W 005°60'1010.8
2014-Apr-15 02:32N 51°33' W 006°00'3913.0
2014-Apr-14 23:32N 52°12' W 005°53'70 9.9
2014-Apr-14 16:32N 53°21' W 006°13'0 0.3
2014-Apr-14 15:33N 53°21' W 006°13'0 0.0
2014-Apr-14 14:33N 53°21' W 006°13'0 0.0
2014-Apr-14 13:33N 53°21' W 006°13'0 0.0
2014-Apr-14 11:33N 53°21' W 006°13'0 0.0
2014-Apr-14 10:33N 53°21' W 006°13'  

Dump ship's entire track history

sailing weather and tide predictions

Joy — V2EI9 — position and weather